Time;durP1;ratioP1;P1;durP2;ratioP2;P2;SDS_P1;SDS_P2;PMS_P1;PMS_P2;Temp;Humidity;BMP_temperature;BMP_pressure;BME280_temperature;BME280_humidity;BME280_pressure;Samples;Min_cycle;Max_cycle;Signal;HPM_P1;HPM_P2
2022/06/09 00:01:59;;;;;;;3.50;1.05;;;;;;;20.06;60.74;100744.72;5032826;28;20030;-69
2022/06/09 00:04:34;;;;;;;4.40;1.25;;;;;;;20.06;60.63;100740.28;5032159;28;20057;-69
2022/06/09 00:07:17;;;;;;;3.20;1.23;;;;;;;20.05;60.59;100740.41;5032369;28;20017;-69
2022/06/09 00:09:47;;;;;;;3.20;1.17;;;;;;;20.05;60.57;100745.72;5032851;28;20022;-70
2022/06/09 00:12:12;;;;;;;4.72;1.17;;;;;;;20.04;60.53;100744.84;5031544;28;20075;-70
2022/06/09 00:14:38;;;;;;;4.15;1.08;;;;;;;20.04;60.37;100746.66;5032659;28;20033;-70
2022/06/09 00:17:05;;;;;;;3.85;1.30;;;;;;;20.05;60.45;100753.66;5031990;28;20468;-70
2022/06/09 00:19:31;;;;;;;2.67;1.13;;;;;;;20.04;60.45;100755.44;5032313;28;20487;-70
2022/06/09 00:21:57;;;;;;;3.83;1.20;;;;;;;20.03;60.34;100753.78;5032785;28;20108;-70
2022/06/09 00:24:22;;;;;;;3.40;1.20;;;;;;;20.03;60.25;100752.94;5031853;28;20149;-70
2022/06/09 00:26:47;;;;;;;4.22;1.20;;;;;;;20.03;60.31;100753.78;5031999;28;20064;-70
2022/06/09 00:29:16;;;;;;;4.55;1.30;;;;;;;20.03;60.41;100752.94;5032153;28;20116;-70
2022/06/09 00:31:41;;;;;;;4.93;1.10;;;;;;;20.03;60.44;100752.94;5032237;28;20032;-70
2022/06/09 00:34:07;;;;;;;3.20;1.00;;;;;;;20.03;60.44;100756.44;5031782;28;20025;-69
2022/06/09 00:36:32;;;;;;;3.35;1.17;;;;;;;20.02;60.24;100754.75;5032605;28;20075;-70
2022/06/09 00:38:58;;;;;;;3.35;1.27;;;;;;;20.02;60.15;100760.03;5032152;28;20115;-70
2022/06/09 00:41:45;;;;;;;4.43;1.10;;;;;;;20.02;60.04;100756.56;5031537;28;20040;-69
2022/06/09 00:44:21;;;;;;;5.00;1.25;;;;;;;20.02;60.08;100761.84;5030995;28;20106;-69
2022/06/09 00:47:08;;;;;;;3.97;1.20;;;;;;;20.01;60.19;100754.88;5032340;28;20026;-70
2022/06/09 00:49:49;;;;;;;2.58;1.10;;;;;;;20.00;59.93;100758.53;5031860;28;20124;-70
2022/06/09 00:52:21;;;;;;;4.38;1.27;;;;;;;20.01;60.03;100765.47;5031792;28;20021;-70
2022/06/09 00:54:50;;;;;;;3.67;1.17;;;;;;;20.00;59.95;100764.63;5031917;28;20177;-70
2022/06/09 00:57:21;;;;;;;3.88;1.40;;;;;;;20.01;59.65;100770.75;5031978;28;20381;-70
2022/06/09 00:59:52;;;;;;;3.22;1.20;;;;;;;20.01;59.82;100768.09;5032165;28;20063;-70
2022/06/09 01:02:19;;;;;;;4.20;1.40;;;;;;;19.98;59.95;100766.59;5031505;28;20029;-71
2022/06/09 01:04:47;;;;;;;3.72;1.20;;;;;;;19.98;59.81;100766.59;5032120;28;20026;-69
2022/06/09 01:07:23;;;;;;;4.85;1.20;;;;;;;19.98;59.71;100758.66;5031713;28;20022;-70
2022/06/09 01:09:49;;;;;;;4.70;1.25;;;;;;;19.97;59.83;100758.78;5031877;28;20100;-70
2022/06/09 01:12:31;;;;;;;4.45;1.25;;;;;;;19.97;59.75;100762.25;5032028;28;20033;-70
2022/06/09 01:15:04;;;;;;;4.70;1.45;;;;;;;19.96;59.67;100763.22;5032265;28;20099;-70
2022/06/09 01:17:30;;;;;;;5.65;1.42;;;;;;;19.97;59.85;100772.84;5031986;28;20021;-70
2022/06/09 01:20:13;;;;;;;3.78;1.52;;;;;;;19.96;59.58;100775.63;5032261;28;20041;-69
2022/06/09 01:23:07;;;;;;;6.57;1.50;;;;;;;19.96;59.57;100765.88;5033311;28;20091;-69
2022/06/09 01:25:42;;;;;;;3.65;1.10;;;;;;;19.93;59.50;100767.00;5035542;28;20041;-70
2022/06/09 01:28:25;;;;;;;4.85;1.20;;;;;;;19.96;59.47;100775.63;5035264;28;20149;-70
2022/06/09 01:30:59;;;;;;;3.15;1.20;;;;;;;19.97;59.41;100772.03;5035099;28;20096;-69
2022/06/09 01:33:39;;;;;;;3.97;1.60;;;;;;;19.96;59.88;100783.56;5035292;28;20064;-70
2022/06/09 01:36:15;;;;;;;3.45;1.23;;;;;;;19.94;59.50;100779.25;5034616;28;20112;-70
2022/06/09 01:38:44;;;;;;;4.93;1.30;;;;;;;19.95;59.30;100790.69;5035598;28;20030;-70
2022/06/09 01:41:09;;;;;;;5.18;1.35;;;;;;;19.94;59.50;100791.63;5034972;28;20021;-70
2022/06/09 01:43:35;;;;;;;6.40;1.70;;;;;;;19.94;59.32;100783.69;5034602;28;20033;-70
2022/06/09 01:46:08;;;;;;;4.20;1.20;;;;;;;19.94;59.10;100789.00;5035285;28;20053;-70
2022/06/09 01:48:35;;;;;;;4.85;1.50;;;;;;;19.93;59.23;100792.59;5034875;28;20029;-71
2022/06/09 01:51:05;;;;;;;3.97;1.33;;;;;;;19.93;59.18;100798.75;5034807;28;20025;-71
2022/06/09 01:53:37;;;;;;;4.13;1.25;;;;;;;19.94;59.23;100802.22;5035000;28;20500;-71
2022/06/09 01:56:19;;;;;;;5.70;1.50;;;;;;;19.93;59.11;100800.53;5034685;28;20029;-70
2022/06/09 01:58:51;;;;;;;4.93;1.20;;;;;;;19.93;59.29;100801.41;5034521;28;20030;-70
2022/06/09 02:01:21;;;;;;;4.30;1.40;;;;;;;19.92;59.11;100801.53;5034613;28;20477;-70
2022/06/09 02:03:50;;;;;;;4.38;1.33;;;;;;;19.92;59.15;100794.41;5035202;28;20044;-70
2022/06/09 02:06:16;;;;;;;4.22;1.40;;;;;;;19.91;59.16;100798.03;5033995;28;20028;-70
2022/06/09 02:08:42;;;;;;;5.63;1.75;;;;;;;19.89;59.19;100801.81;5035049;28;20120;-69
2022/06/09 02:11:11;;;;;;;4.93;1.30;;;;;;;19.90;59.09;100800.81;5034279;28;20033;-70
2022/06/09 02:13:48;;;;;;;5.03;1.52;;;;;;;19.91;59.09;100811.25;5034313;28;20027;-69
2022/06/09 02:16:19;;;;;;;5.32;1.45;;;;;;;19.90;58.85;100809.59;5034702;28;20025;-69
2022/06/09 02:18:49;;;;;;;4.20;1.48;;;;;;;19.90;58.98;100814.03;5034246;28;20071;-70
2022/06/09 02:21:26;;;;;;;5.25;1.80;;;;;;;19.91;58.94;100810.41;5034453;28;20029;-69
2022/06/09 02:23:54;;;;;;;5.15;1.38;;;;;;;19.89;58.83;100813.22;5034210;28;20048;-70
2022/06/09 02:26:21;;;;;;;3.78;1.30;;;;;;;19.90;58.86;100819.31;5033456;28;20057;-70
2022/06/09 02:28:47;;;;;;;3.85;1.20;;;;;;;19.89;58.72;100815.84;5034657;28;20034;-70
2022/06/09 02:31:12;;;;;;;4.35;1.40;;;;;;;19.89;58.76;100826.44;5033988;28;20072;-70
2022/06/09 02:33:38;;;;;;;5.00;1.25;;;;;;;19.89;58.80;100820.31;5033902;28;20029;-70
2022/06/09 02:36:09;;;;;;;5.30;1.58;;;;;;;19.89;58.68;100830.88;5033982;28;20021;-70
2022/06/09 02:38:38;;;;;;;6.05;1.75;;;;;;;19.90;58.83;100832.53;5033941;28;20033;-70
2022/06/09 02:41:06;;;;;;;5.78;1.60;;;;;;;19.89;58.54;100834.38;5033658;28;20431;-70
2022/06/09 02:43:31;;;;;;;4.53;1.30;;;;;;;19.89;58.90;100830.88;5034018;28;20025;-69
2022/06/09 02:45:57;;;;;;;6.25;1.50;;;;;;;19.89;58.58;100839.66;5033670;28;20051;-70
2022/06/09 02:48:23;;;;;;;3.40;1.20;;;;;;;19.88;58.58;100835.31;5033175;28;20029;-70
2022/06/09 02:50:51;;;;;;;6.38;1.85;;;;;;;19.87;58.39;100838.13;5033756;28;20625;-70
2022/06/09 02:53:16;;;;;;;5.22;1.42;;;;;;;19.86;58.72;100839.09;5033379;28;20029;-70
2022/06/09 02:55:41;;;;;;;6.38;1.65;;;;;;;19.87;58.45;100838.97;5033529;28;20465;-70
2022/06/09 02:58:07;;;;;;;4.18;1.40;;;;;;;19.87;58.59;100846.91;5033618;28;20028;-70
2022/06/09 03:00:33;;;;;;;6.93;1.50;;;;;;;19.86;58.51;100845.22;5033454;28;20033;-69
2022/06/09 03:03:04;;;;;;;5.57;1.52;;;;;;;19.87;58.37;100848.72;5033658;28;20029;-70
2022/06/09 03:05:31;;;;;;;7.03;1.63;;;;;;;19.87;58.52;100854.84;5033519;28;20039;-71
2022/06/09 03:07:57;;;;;;;4.88;1.52;;;;;;;19.86;58.57;100852.31;5033089;28;20212;-70
2022/06/09 03:10:23;;;;;;;4.78;1.33;;;;;;;19.85;58.50;100859.44;5033451;28;20128;-70
2022/06/09 03:12:51;;;;;;;5.47;1.80;;;;;;;19.85;58.41;100866.50;5033329;28;20383;-70
2022/06/09 03:15:26;;;;;;;4.35;1.35;;;;;;;19.86;58.46;100870.84;5032660;28;20029;-70
2022/06/09 03:17:52;;;;;;;5.55;1.48;;;;;;;19.86;58.46;100871.66;5033727;28;20101;-70
2022/06/09 03:20:28;;;;;;;5.60;1.48;;;;;;;19.84;58.51;100876.25;5032895;28;20487;-70
2022/06/09 03:22:57;;;;;;;5.75;1.50;;;;;;;19.84;58.29;100884.19;5033013;28;20048;-70
2022/06/09 03:25:23;;;;;;;5.53;1.45;;;;;;;19.85;58.30;100888.53;5032921;28;20455;-70
2022/06/09 03:27:49;;;;;;;5.18;1.52;;;;;;;19.85;58.45;100891.16;5033138;28;20064;-70
2022/06/09 03:30:15;;;;;;;5.25;1.50;;;;;;;19.84;58.19;100886.84;5032413;28;20048;-70
2022/06/09 03:32:40;;;;;;;4.97;1.48;;;;;;;19.84;58.52;100886.00;5033088;28;20021;-71
2022/06/09 03:35:07;;;;;;;5.00;1.80;;;;;;;19.83;58.32;100897.53;5032813;28;20031;-71
2022/06/09 03:37:35;;;;;;;4.03;1.70;;;;;;;19.83;58.40;100905.47;5032702;28;20025;-71
2022/06/09 03:40:01;;;;;;;5.18;1.40;;;;;;;19.83;58.19;100908.13;5033225;28;20033;-70
2022/06/09 03:42:26;;;;;;;4.63;1.23;;;;;;;19.83;58.18;100910.78;5032734;28;20034;-71
2022/06/09 03:44:55;;;;;;;5.40;1.63;;;;;;;19.84;58.23;100915.09;5032163;28;20033;-71
2022/06/09 03:47:22;;;;;;;4.68;1.45;;;;;;;19.81;58.26;100913.53;5032650;28;20060;-71
2022/06/09 03:49:47;;;;;;;6.60;1.80;;;;;;;19.82;58.20;100915.22;5032364;28;20021;-70
2022/06/09 03:52:13;;;;;;;5.38;1.40;;;;;;;19.82;58.09;100911.72;5032835;28;20389;-69
2022/06/09 03:54:41;;;;;;;5.33;1.70;;;;;;;19.80;58.26;100918.97;5032998;28;20035;-70
2022/06/09 03:57:06;;;;;;;5.53;1.70;;;;;;;19.80;58.02;100922.44;5031800;28;20274;-70
2022/06/09 03:59:31;;;;;;;5.53;1.80;;;;;;;19.82;58.18;100932.88;5032927;28;20028;-70
2022/06/09 04:02:00;;;;;;;6.03;1.75;;;;;;;19.81;58.08;100933.88;5032456;28;20332;-70
2022/06/09 04:04:25;;;;;;;5.22;2.30;;;;;;;19.81;58.21;100937.34;5031159;28;20044;-70
2022/06/09 04:06:50;;;;;;;4.75;1.58;;;;;;;19.81;58.05;100942.63;5032947;28;20025;-70
2022/06/09 04:09:16;;;;;;;8.63;2.10;;;;;;;19.80;57.87;100946.25;5032288;28;20527;-70
2022/06/09 04:11:41;;;;;;;5.00;1.40;;;;;;;19.81;57.96;100958.50;5032173;28;20017;-70
2022/06/09 04:14:10;;;;;;;5.03;1.40;;;;;;;19.80;57.99;100950.69;5032211;28;20461;-70
2022/06/09 04:16:38;;;;;;;5.60;1.52;;;;;;;19.80;57.94;100950.69;5032300;28;20025;-69
2022/06/09 04:19:08;;;;;;;5.35;1.60;;;;;;;19.79;57.97;100954.31;5032033;28;20048;-70
2022/06/09 04:21:34;;;;;;;4.30;1.50;;;;;;;19.79;57.96;100955.16;5032577;28;20484;-70
2022/06/09 04:23:59;;;;;;;5.47;2.10;;;;;;;19.80;57.88;100963.94;5032197;28;20037;-69
2022/06/09 04:26:27;;;;;;;5.93;1.55;;;;;;;19.80;57.96;100956.00;5031659;28;20029;-70
2022/06/09 04:28:55;;;;;;;5.50;1.63;;;;;;;19.80;57.99;100958.63;5032542;28;20025;-70
2022/06/09 04:31:21;;;;;;;7.75;2.05;;;;;;;19.79;57.65;100965.75;5032077;28;20022;-69
2022/06/09 04:33:48;;;;;;;6.13;1.80;;;;;;;19.79;57.89;100968.38;5032177;28;20075;-70
2022/06/09 04:36:17;;;;;;;4.57;1.52;;;;;;;19.79;57.90;100967.53;5032087;28;20591;-70
2022/06/09 04:38:43;;;;;;;7.07;1.73;;;;;;;19.79;57.90;100970.16;5032366;28;20037;-70
2022/06/09 04:41:11;;;;;;;6.40;1.60;;;;;;;19.78;57.74;100973.81;5031672;28;20022;-70
2022/06/09 04:43:45;;;;;;;4.95;1.65;;;;;;;19.78;57.74;100974.63;5032227;28;20028;-70
2022/06/09 04:46:16;;;;;;;6.13;1.60;;;;;;;19.79;57.92;100980.75;5030695;28;20072;-70
2022/06/09 04:48:42;;;;;;;4.47;1.65;;;;;;;19.78;57.74;100985.22;5032443;28;20183;-70
2022/06/09 04:51:13;;;;;;;7.55;1.77;;;;;;;19.77;57.78;100985.34;5031960;28;20084;-70
2022/06/09 04:53:39;;;;;;;7.90;2.45;;;;;;;19.79;57.54;100989.53;5031683;28;20473;-70
2022/06/09 04:56:09;;;;;;;6.93;1.83;;;;;;;19.78;57.75;100990.50;5031726;28;20036;-70
2022/06/09 04:58:34;;;;;;;6.78;1.90;;;;;;;19.78;57.62;100992.31;5035344;28;20491;-72
2022/06/09 05:00:59;;;;;;;6.43;1.50;;;;;;;19.78;57.54;100992.31;5035823;28;20061;-70
2022/06/09 05:03:27;;;;;;;4.97;1.48;;;;;;;19.79;57.86;101007.19;5035785;28;20477;-70
2022/06/09 05:05:53;;;;;;;6.00;1.58;;;;;;;19.80;57.53;101014.16;5035848;28;20083;-71
2022/06/09 05:08:18;;;;;;;6.20;1.63;;;;;;;19.80;57.53;101012.34;5035163;28;20423;-69
2022/06/09 05:10:46;;;;;;;5.63;1.40;;;;;;;19.83;57.80;101021.84;5035810;28;20275;-69
2022/06/09 05:13:13;;;;;;;7.07;2.05;;;;;;;19.83;58.03;101021.84;5035467;28;20101;-69
2022/06/09 05:15:54;;;;;;;5.22;1.73;;;;;;;19.85;58.51;101036.63;5035002;28;20026;-69
2022/06/09 05:18:22;;;;;;;10.35;2.50;;;;;;;19.86;58.88;101046.22;5035369;28;20021;-70
2022/06/09 05:20:49;;;;;;;5.50;2.17;;;;;;;19.88;58.70;101044.25;5035335;28;20469;-70
2022/06/09 05:23:14;;;;;;;8.32;2.60;;;;;;;19.90;59.00;101044.13;5034619;28;20457;-69
2022/06/09 05:25:40;;;;;;;10.27;2.50;;;;;;;19.92;58.95;101044.88;5035214;28;20064;-70
2022/06/09 05:28:05;;;;;;;5.75;2.22;;;;;;;19.92;58.96;101044.88;5035008;28;20034;-70
2022/06/09 05:30:31;;;;;;;5.95;2.10;;;;;;;19.91;58.84;101051.94;5034998;28;20028;-69
2022/06/09 05:32:56;;;;;;;6.57;2.30;;;;;;;19.93;58.66;101057.97;5035295;28;20445;-69
2022/06/09 05:35:30;;;;;;;7.20;1.70;;;;;;;19.91;58.41;101059.88;5034496;28;20488;-70
2022/06/09 05:46:09;;;;;;;6.70;2.00;;;;;;;19.91;58.16;101077.56;5034882;28;20044;-69
2022/06/09 05:48:40;;;;;;;5.53;1.77;;;;;;;19.91;58.11;101082.84;5035089;28;20025;-69
2022/06/09 05:51:05;;;;;;;8.68;2.13;;;;;;;19.90;58.00;101087.31;5034294;28;20052;-69
2022/06/09 05:53:31;;;;;;;5.97;1.85;;;;;;;19.90;57.88;101091.75;5035299;28;20486;-69
2022/06/09 05:55:59;;;;;;;6.90;1.70;;;;;;;19.89;57.94;101092.72;5034875;28;20025;-69
2022/06/09 05:58:25;;;;;;;7.95;2.05;;;;;;;19.89;57.68;101092.72;5034117;28;20075;-71
2022/06/09 06:00:50;;;;;;;6.65;2.00;;;;;;;19.90;57.43;101097.88;5034148;28;20041;-70
2022/06/09 06:03:16;;;;;;;6.63;1.90;;;;;;;19.89;57.88;101109.44;5034689;28;20039;-70
2022/06/09 06:08:34;;;;;;;7.27;2.10;;;;;;;19.90;57.61;101110.25;5034214;28;20029;-70
2022/06/09 06:11:00;;;;;;;6.28;2.05;;;;;;;19.89;57.72;101120.00;5034324;28;20333;-71
2022/06/09 06:13:25;;;;;;;7.03;2.03;;;;;;;19.90;57.50;101118.19;5034532;28;20029;-70
2022/06/09 06:15:55;;;;;;;8.25;2.67;;;;;;;19.89;57.49;101127.94;5034524;28;20461;-69
2022/06/09 06:18:24;;;;;;;9.07;2.40;;;;;;;19.89;57.60;101124.47;5033890;28;20104;-68
2022/06/09 06:20:50;;;;;;;6.22;1.80;;;;;;;19.90;57.82;101131.41;5034568;28;20030;-69
2022/06/09 06:23:16;;;;;;;7.15;1.80;;;;;;;19.90;57.70;101131.41;5033979;28;20075;-70
2022/06/09 06:25:41;;;;;;;5.80;1.77;;;;;;;19.89;57.72;101138.53;5033549;28;20428;-70
2022/06/09 06:28:06;;;;;;;6.57;1.90;;;;;;;19.90;57.74;101136.72;5033952;28;20073;-68
2022/06/09 06:30:32;;;;;;;7.82;1.80;;;;;;;19.90;57.63;101131.41;5034213;28;20022;-69
2022/06/09 06:33:00;;;;;;;6.25;2.00;;;;;;;19.90;57.51;101147.28;5033916;28;20540;-68
2022/06/09 06:35:25;;;;;;;6.78;1.80;;;;;;;19.91;57.56;101151.63;5033834;28;20477;-68
2022/06/09 06:37:50;;;;;;;4.85;1.52;;;;;;;19.90;57.73;101164.03;5034108;28;20040;-68
2022/06/09 06:40:16;;;;;;;4.93;1.83;;;;;;;19.90;57.46;101157.88;5033355;28;20025;-68
2022/06/09 06:42:42;;;;;;;7.35;1.63;;;;;;;19.89;57.58;101159.69;5034333;28;20539;-69
2022/06/09 06:45:10;;;;;;;5.65;1.63;;;;;;;19.90;57.44;101174.59;5033713;28;20036;-70
2022/06/09 06:47:35;;;;;;;9.30;2.03;;;;;;;19.90;57.50;101169.31;5033445;28;20025;-70
2022/06/09 06:50:01;;;;;;;5.20;1.73;;;;;;;19.90;57.40;101171.09;5033773;28;20527;-70
2022/06/09 06:52:27;;;;;;;4.28;1.50;;;;;;;19.91;57.52;101178.06;5033906;28;20271;-70
2022/06/09 06:54:53;;;;;;;6.18;1.85;;;;;;;19.90;57.53;101179.88;5033478;28;20025;-69
2022/06/09 06:57:18;;;;;;;6.55;1.70;;;;;;;19.90;57.70;101189.59;5033484;28;20076;-69
2022/06/09 06:59:43;;;;;;;5.97;1.60;;;;;;;19.90;57.36;101192.25;5033501;28;20021;-70
2022/06/09 07:02:11;;;;;;;5.30;1.50;;;;;;;19.90;57.28;101187.81;5033351;28;20037;-70
2022/06/09 07:04:36;;;;;;;5.63;1.58;;;;;;;19.91;57.70;101188.66;5033558;28;20108;-70
2022/06/09 07:07:02;;;;;;;5.30;1.48;;;;;;;19.91;57.51;101191.28;5032989;28;20132;-70
2022/06/09 07:09:27;;;;;;;4.47;1.42;;;;;;;19.91;57.32;101200.06;5033718;28;20079;-70
2022/06/09 07:11:55;;;;;;;8.35;1.58;;;;;;;19.90;57.57;101203.69;5033342;28;20112;-69
2022/06/09 07:14:20;;;;;;;7.60;1.60;;;;;;;19.91;57.46;101205.34;5032885;28;20071;-70
2022/06/09 07:16:46;;;;;;;5.60;1.52;;;;;;;19.91;57.42;101213.28;5033647;28;20423;-70
2022/06/09 07:19:12;;;;;;;7.28;1.88;;;;;;;19.91;57.41;101215.94;5032576;28;20523;-71
2022/06/09 07:21:38;;;;;;;5.20;1.38;;;;;;;19.92;57.35;101219.44;5032677;28;20021;-70
2022/06/09 07:24:04;;;;;;;7.78;1.70;;;;;;;19.91;57.39;101226.50;5032758;28;20021;-71
2022/06/09 07:26:29;;;;;;;5.97;1.73;;;;;;;19.92;57.25;101227.38;5033321;28;20029;-69
2022/06/09 07:28:54;;;;;;;5.82;1.35;;;;;;;19.91;57.31;101226.50;5033246;28;20108;-68
2022/06/09 07:31:20;;;;;;;5.30;1.35;;;;;;;19.91;57.29;101230.97;5032263;28;20175;-68
2022/06/09 07:33:45;;;;;;;8.18;1.40;;;;;;;19.92;57.40;101233.50;5033052;28;20488;-68
2022/06/09 07:36:15;;;;;;;8.85;1.75;;;;;;;19.90;57.04;101224.00;5032369;28;20021;-69
2022/06/09 07:38:43;;;;;;;7.45;2.08;;;;;;;19.92;57.23;101224.72;5033026;28;20029;-68
2022/06/09 07:41:09;;;;;;;7.72;1.58;;;;;;;19.90;57.33;101219.56;5032757;28;20095;-69
2022/06/09 07:43:35;;;;;;;6.47;1.48;;;;;;;19.92;57.29;101227.38;5032609;28;20065;-69
2022/06/09 07:46:01;;;;;;;5.78;1.45;;;;;;;19.93;57.22;101223.75;5033021;28;20454;-68
2022/06/09 07:48:27;;;;;;;4.30;1.50;;;;;;;19.93;57.26;101235.19;5032811;28;20492;-71
2022/06/09 07:50:52;;;;;;;6.57;1.60;;;;;;;19.94;57.19;101233.38;5032456;28;20043;-69
2022/06/09 07:53:19;;;;;;;3.90;1.30;;;;;;;19.92;57.20;101236.13;5032384;28;20470;-69
2022/06/09 07:55:45;;;;;;;4.45;1.40;;;;;;;19.94;57.20;101236.00;5032822;28;20377;-70
2022/06/09 07:58:12;;;;;;;5.20;1.40;;;;;;;19.94;57.21;101236.00;5032052;28;20017;-70
2022/06/09 08:00:40;;;;;;;8.23;2.58;;;;;;;19.94;57.20;101236.00;5032603;28;20072;-70
2022/06/09 08:03:06;;;;;;;4.47;1.42;;;;;;;19.94;57.17;101241.31;5031978;28;20025;-69
2022/06/09 08:05:33;;;;;;;6.03;1.40;;;;;;;19.96;57.19;101247.28;5032582;28;20079;-70
2022/06/09 08:07:59;;;;;;;4.88;1.45;;;;;;;19.96;57.21;101257.03;5032287;28;20060;-70
2022/06/09 08:10:27;;;;;;;4.68;1.38;;;;;;;19.96;57.21;101257.03;5031938;28;20060;-70
2022/06/09 08:12:59;;;;;;;4.57;1.38;;;;;;;19.95;57.10;101253.56;5032575;28;20039;-70
2022/06/09 08:15:25;;;;;;;3.53;1.00;;;;;;;19.96;56.93;101262.34;5032186;28;20105;-70
2022/06/09 08:17:55;;;;;;;5.47;1.77;;;;;;;19.96;57.16;101264.97;5032058;28;20083;-69
2022/06/09 08:20:24;;;;;;;3.78;1.00;;;;;;;19.96;57.37;101263.16;5032138;28;20121;-68
2022/06/09 08:22:50;;;;;;;3.38;1.17;;;;;;;19.97;57.05;101272.78;5032393;28;20087;-70
2022/06/09 08:25:18;;;;;;;2.90;0.90;;;;;;;19.94;57.08;101262.47;5031375;28;20124;-70
2022/06/09 08:27:44;;;;;;;3.30;0.98;;;;;;;19.97;56.89;101277.25;5032303;28;20105;-70
2022/06/09 08:30:13;;;;;;;4.47;1.30;;;;;;;19.96;56.87;101270.28;5031950;28;20393;-71
2022/06/09 08:32:41;;;;;;;2.83;0.98;;;;;;;19.97;57.03;101287.84;5035255;28;20366;-70
2022/06/09 08:35:11;;;;;;;6.35;1.27;;;;;;;19.97;57.17;101287.84;5036062;28;20107;-70
2022/06/09 08:37:37;;;;;;;3.47;1.00;;;;;;;19.97;57.07;101291.31;5036395;28;20219;-70
2022/06/09 08:40:05;;;;;;;5.60;1.23;;;;;;;19.98;57.12;101289.50;5035556;28;20021;-71
2022/06/09 08:42:36;;;;;;;2.75;1.05;;;;;;;19.98;57.13;101287.72;5036306;28;20121;-70
2022/06/09 08:45:09;;;;;;;2.78;1.00;;;;;;;20.00;57.11;101295.53;5036002;28;20026;-69
2022/06/09 08:47:39;;;;;;;3.28;1.00;;;;;;;20.00;56.96;101301.66;5035968;28;20025;-71
2022/06/09 08:50:11;;;;;;;3.03;0.98;;;;;;;20.00;57.12;101303.47;5035752;28;20469;-72
2022/06/09 08:52:46;;;;;;;5.03;1.20;;;;;;;20.00;57.08;101301.66;5035626;28;20083;-70
2022/06/09 08:55:45;;;;;;;4.68;1.00;;;;;;;20.00;57.15;101312.22;5035736;28;20440;-68
2022/06/09 08:58:31;;;;;;;4.32;1.48;;;;;;;20.01;56.96;101307.75;5035500;28;20464;-68
2022/06/09 09:01:05;;;;;;;3.20;1.02;;;;;;;20.01;57.27;101313.06;5035605;28;20408;-70
2022/06/09 09:03:35;;;;;;;;;;;;;;;20.01;57.00;101315.69;5036237;28;20388;-68
2022/06/09 09:06:17;;;;;;;3.35;1.08;;;;;;;20.00;57.00;101319.34;5035737;28;19959;-68
2022/06/09 09:08:45;;;;;;;3.88;1.10;;;;;;;20.01;56.95;101318.34;5035955;28;20028;-68
2022/06/09 09:11:17;;;;;;;4.05;1.20;;;;;;;20.01;57.08;101324.50;5035507;28;20101;-68
2022/06/09 09:13:59;;;;;;;4.05;1.23;;;;;;;20.01;57.03;101321.00;5035491;28;20037;-68
2022/06/09 09:16:35;;;;;;;3.97;0.93;;;;;;;20.02;57.06;101326.16;5035447;28;20037;-68
2022/06/09 09:19:27;;;;;;;3.22;1.10;;;;;;;20.01;57.27;101327.16;5035643;28;20025;-70
2022/06/09 09:22:23;;;;;;;3.42;1.10;;;;;;;20.02;57.21;101331.44;4994638;28;20037;-70
2022/06/09 09:25:09;;;;;;;8.15;1.20;;;;;;;20.02;57.29;101333.25;5035127;28;20052;-69
2022/06/09 09:27:40;;;;;;;4.70;1.10;;;;;;;20.02;57.20;101343.84;5035504;28;20025;-70
2022/06/09 09:30:24;;;;;;;4.40;1.10;;;;;;;20.02;57.15;101341.22;5035307;28;20032;-70
2022/06/09 09:32:53;;;;;;;3.25;1.08;;;;;;;20.03;57.06;101346.38;5035246;28;20079;-70
2022/06/09 09:35:38;;;;;;;6.60;1.25;;;;;;;20.02;57.06;101349.13;5034658;28;20076;-69
2022/06/09 09:38:04;;;;;;;4.60;1.00;;;;;;;20.03;56.61;101353.47;5035310;28;20379;-71
2022/06/09 09:40:37;;;;;;;5.10;0.98;;;;;;;20.03;57.06;101351.66;5035004;28;20029;-70
2022/06/09 09:43:10;;;;;;;3.65;1.30;;;;;;;20.03;57.01;101356.94;5033725;28;20036;-71
2022/06/09 09:45:42;;;;;;;4.68;1.02;;;;;;;20.03;57.00;101354.31;5035063;28;20032;-70
2022/06/09 09:48:20;;;;;;;4.30;1.17;;;;;;;20.03;56.98;101354.31;5035511;28;20465;-69
2022/06/09 09:50:55;;;;;;;3.30;1.00;;;;;;;20.04;57.00;101355.97;5034728;28;20504;-70
2022/06/09 09:53:29;;;;;;;3.70;0.85;;;;;;;20.05;56.90;101359.47;5034547;28;20022;-69
2022/06/09 09:56:01;;;;;;;3.05;0.90;;;;;;;20.04;57.13;101355.97;5034906;28;20427;-70
2022/06/09 09:58:57;;;;;;;5.43;1.00;;;;;;;20.07;56.85;101362.81;5035020;28;20057;-70
2022/06/09 10:01:22;;;;;;;5.30;1.13;;;;;;;20.07;56.96;101365.47;5034386;28;20512;-69
2022/06/09 10:09:43;;;;;;;3.30;1.00;;;;;;;20.05;56.82;101378.00;5034527;28;20076;-69
2022/06/09 10:12:19;;;;;;;4.63;1.05;;;;;;;20.08;56.73;101390.97;5034384;28;20045;-69
2022/06/09 10:14:53;;;;;;;4.07;1.10;;;;;;;20.07;56.63;101402.50;5034534;28;20033;-71
2022/06/09 10:17:35;;;;;;;6.25;1.40;;;;;;;20.08;56.75;101397.09;5033798;28;20029;-69
2022/06/09 10:20:15;;;;;;;4.78;1.15;;;;;;;20.08;56.96;101404.22;5034789;28;20393;-70
2022/06/09 10:22:53;;;;;;;3.03;1.00;;;;;;;20.08;56.71;101398.91;5034496;28;20021;-70
2022/06/09 10:25:25;;;;;;;5.05;1.17;;;;;;;20.08;56.80;101405.03;5033487;28;20073;-70
2022/06/09 10:27:57;;;;;;;4.70;1.42;;;;;;;20.08;56.79;101405.03;5034263;28;20499;-70
2022/06/09 10:30:46;;;;;;;3.95;1.17;;;;;;;20.09;56.66;101411.16;5034484;28;20076;-69
2022/06/09 10:33:33;;;;;;;4.45;1.05;;;;;;;20.09;56.76;101413.81;5034318;28;20028;-69
2022/06/09 10:36:10;;;;;;;3.08;0.95;;;;;;;20.09;56.73;101412.03;5033959;28;20071;-70
2022/06/09 10:38:44;;;;;;;4.75;0.90;;;;;;;20.10;56.75;101410.22;5033982;28;20028;-69
2022/06/09 10:41:11;;;;;;;;;;;;;;;20.09;56.92;101406.72;5034417;28;20053;-70
2022/06/09 10:44:02;;;;;;;2.33;0.90;;;;;;;20.10;56.72;101410.22;5033941;28;19917;-70
2022/06/09 10:46:41;;;;;;;3.63;1.10;;;;;;;20.10;56.78;101408.38;5033537;28;20469;-70
2022/06/09 10:55:18;;;;;;;2.10;0.80;;;;;;;20.11;56.63;101418.03;5037795;28;20384;-68
2022/06/09 10:57:56;;;;;;;3.10;1.02;;;;;;;20.11;56.64;101417.19;5033790;28;20036;-70
2022/06/09 11:00:35;;;;;;;1.92;0.90;;;;;;;20.11;56.58;101419.84;5033107;28;20031;-68
2022/06/09 11:03:09;;;;;;;2.97;1.20;;;;;;;20.11;56.59;101428.59;5033683;28;20036;-68
2022/06/09 11:05:59;;;;;;;3.72;1.10;;;;;;;20.13;56.51;101425.84;5033675;28;20030;-68
2022/06/09 11:08:57;;;;;;;2.28;1.00;;;;;;;20.14;56.48;101424.03;5033508;28;20101;-69
2022/06/09 11:11:59;;;;;;;3.40;1.25;;;;;;;20.15;56.56;101431.00;5033391;28;20033;-68
2022/06/09 11:14:33;;;;;;;3.10;1.00;;;;;;;20.15;56.58;101439.78;5032897;28;20108;-69
2022/06/09 11:16:59;;;;;;;;;;;;;;;20.16;56.63;101440.63;5033637;28;20377;-69
2022/06/09 11:19:40;;;;;;;3.33;1.15;;;;;;;20.16;56.49;101440.63;5033145;28;19913;-69
2022/06/09 11:22:24;;;;;;;2.35;1.17;;;;;;;20.16;56.57;101443.28;5032941;28;20025;-69
2022/06/09 11:25:00;;;;;;;3.58;1.30;;;;;;;20.16;56.67;101445.94;5033385;28;20053;-69
2022/06/09 11:27:42;;;;;;;3.58;1.30;;;;;;;20.16;56.63;101446.75;5032666;28;20036;-69
2022/06/09 11:30:20;;;;;;;3.42;1.40;;;;;;;20.15;56.58;101450.38;5032955;28;20033;-69
2022/06/09 11:33:13;;;;;;;3.33;1.33;;;;;;;20.15;56.44;101439.78;5032983;28;20500;-69
2022/06/09 11:35:49;;;;;;;3.72;1.20;;;;;;;20.16;56.36;101451.22;5032617;28;20080;-70
2022/06/09 11:38:23;;;;;;;2.88;1.20;;;;;;;20.15;56.41;101460.94;5032586;28;20051;-69
2022/06/09 11:41:24;;;;;;;2.30;1.25;;;;;;;20.15;56.41;101466.25;5033458;28;20108;-69
2022/06/09 11:44:04;;;;;;;2.67;1.30;;;;;;;20.16;56.55;101467.94;5033243;28;20036;-70
2022/06/09 11:46:34;;;;;;;3.10;1.27;;;;;;;20.17;56.44;101466.13;5032618;28;20052;-69
2022/06/09 11:49:04;;;;;;;3.35;1.50;;;;;;;20.16;56.50;101475.88;5032512;28;20457;-69
2022/06/09 11:51:31;;;;;;;4.75;1.40;;;;;;;20.16;56.47;101478.53;5033127;28;20409;-71
2022/06/09 11:54:07;;;;;;;2.90;1.40;;;;;;;20.16;56.30;101472.41;5032869;28;20025;-69
2022/06/09 11:56:40;;;;;;;2.20;1.20;;;;;;;20.18;56.31;101483.69;5032509;28;20017;-69
2022/06/09 11:59:11;;;;;;;4.57;1.30;;;;;;;20.18;56.24;101487.16;5032318;28;20033;-69
2022/06/09 12:01:55;;;;;;;3.30;1.20;;;;;;;20.17;56.19;101496.09;5032806;28;20091;-69
2022/06/09 12:04:57;;;;;;;3.83;1.25;;;;;;;20.18;56.42;101495.09;5032185;28;20029;-70
2022/06/09 12:07:43;;;;;;;3.90;1.50;;;;;;;20.18;56.33;101500.41;5031838;28;20033;-70